createdAt,value
2023-04-17T00:02:00.551Z,17.22
2023-04-17T00:04:27.164Z,17.75
2023-04-17T00:06:53.836Z,17.75
2023-04-17T00:09:20.527Z,17.79
2023-04-17T00:11:46.799Z,17.97
2023-04-17T00:14:13.115Z,18.01
2023-04-17T00:16:39.490Z,17.96
2023-04-17T00:19:05.876Z,18.19
2023-04-17T00:21:32.288Z,18.25
2023-04-17T00:23:58.612Z,17.37
2023-04-17T00:26:24.884Z,17.47
2023-04-17T00:28:51.828Z,17.77
2023-04-17T00:31:18.206Z,17.83
2023-04-17T00:33:46.110Z,18.11
2023-04-17T00:36:13.742Z,17.91
2023-04-17T00:38:40.383Z,17.38
2023-04-17T00:41:06.758Z,17.44
2023-04-17T00:43:33.070Z,17.81
2023-04-17T00:45:59.496Z,18.03
2023-04-17T00:48:25.872Z,17.87
2023-04-17T00:50:52.208Z,17.85
2023-04-17T00:53:18.499Z,17.67
2023-04-17T00:55:44.818Z,17.41
2023-04-17T00:58:11.478Z,17.50
2023-04-17T01:00:37.863Z,17.14
2023-04-17T01:03:04.339Z,17.39
2023-04-17T01:05:30.751Z,17.51
2023-04-17T01:07:57.233Z,16.30
2023-04-17T01:10:23.696Z,17.05
2023-04-17T01:13:01.095Z,16.80
2023-04-17T01:15:27.369Z,17.46
2023-04-17T01:17:53.702Z,17.28
2023-04-17T01:20:20.461Z,17.43
2023-04-17T01:22:49.078Z,17.24
2023-04-17T01:25:15.572Z,17.55
2023-04-17T01:27:41.976Z,16.93
2023-04-17T01:30:08.590Z,17.00
2023-04-17T01:32:34.898Z,17.58
2023-04-17T01:35:01.217Z,17.48
2023-04-17T01:37:27.760Z,17.66
2023-04-17T01:39:55.633Z,17.71
2023-04-17T01:42:22.300Z,17.56
2023-04-17T01:44:48.634Z,16.83
2023-04-17T01:47:15.138Z,17.10
2023-04-17T01:49:41.433Z,16.72
2023-04-17T01:52:07.746Z,17.06
2023-04-17T01:54:34.073Z,17.29
2023-04-17T01:57:01.294Z,17.62
2023-04-17T01:59:27.602Z,17.51
2023-04-17T02:01:54.785Z,17.16
2023-04-17T02:04:21.323Z,17.02
2023-04-17T02:06:47.686Z,16.91
2023-04-17T02:09:14.009Z,16.74
2023-04-17T02:11:40.650Z,17.03
2023-04-17T02:14:07.011Z,17.04
2023-04-17T02:16:33.395Z,16.70
2023-04-17T02:18:59.763Z,16.82
2023-04-17T02:21:27.337Z,16.50
2023-04-17T02:23:53.853Z,17.13
2023-04-17T02:26:20.854Z,17.55
2023-04-17T02:28:47.237Z,17.64
2023-04-17T02:31:13.651Z,17.31
2023-04-17T02:33:40.030Z,17.34
2023-04-17T02:36:06.828Z,17.27
2023-04-17T02:38:33.330Z,17.23
2023-04-17T02:40:59.600Z,17.14
2023-04-17T02:43:25.914Z,16.93
2023-04-17T02:45:52.190Z,16.93
2023-04-17T02:48:18.578Z,16.57
2023-04-17T02:50:44.898Z,17.04
2023-04-17T02:53:11.743Z,16.83
2023-04-17T02:55:38.105Z,16.52
2023-04-17T02:58:04.420Z,17.23
2023-04-17T03:00:30.800Z,16.72
2023-04-17T03:02:57.330Z,16.54
2023-04-17T03:05:23.801Z,16.51
2023-04-17T03:07:50.899Z,16.41
2023-04-17T03:10:17.267Z,17.09
2023-04-17T03:12:43.656Z,16.84
2023-04-17T03:15:10.293Z,17.24
2023-04-17T03:17:36.657Z,16.71
2023-04-17T03:20:04.107Z,16.46
2023-04-17T03:22:30.392Z,16.66
2023-04-17T03:24:56.649Z,16.88
2023-04-17T03:27:24.614Z,16.77
2023-04-17T03:29:51.301Z,16.48
2023-04-17T03:32:18.117Z,16.65
2023-04-17T03:34:44.442Z,16.85
2023-04-17T03:37:10.713Z,16.85
2023-04-17T03:39:37.022Z,16.22
2023-04-17T03:42:03.374Z,16.30
2023-04-17T03:44:29.672Z,16.67
2023-04-17T03:46:55.947Z,16.60
2023-04-17T03:49:22.241Z,16.62
2023-04-17T03:51:48.560Z,16.54
2023-04-17T03:54:14.849Z,16.99
2023-04-17T03:56:41.169Z,16.64
2023-04-17T03:59:07.443Z,15.90
2023-04-17T04:01:34.216Z,16.59
2023-04-17T04:04:00.650Z,16.51
2023-04-17T04:06:29.731Z,16.22
2023-04-17T04:08:56.899Z,16.48
2023-04-17T04:11:23.236Z,15.88
2023-04-17T04:13:49.556Z,16.03
2023-04-17T04:16:16.038Z,15.95
2023-04-17T04:18:43.354Z,16.39
2023-04-17T04:21:11.997Z,16.79
2023-04-17T04:23:40.193Z,17.02
2023-04-17T04:26:06.911Z,16.74
2023-04-17T04:28:33.195Z,16.11
2023-04-17T04:30:59.543Z,16.26
2023-04-17T04:33:25.966Z,15.65
2023-04-17T04:35:56.251Z,16.48
2023-04-17T04:38:29.954Z,16.81
2023-04-17T04:41:06.101Z,16.87
2023-04-17T04:43:33.516Z,16.79
2023-04-17T04:45:59.859Z,16.56
2023-04-17T04:48:26.206Z,16.54
2023-04-17T04:50:52.617Z,16.97
2023-04-17T04:53:18.939Z,17.06
2023-04-17T04:55:45.388Z,16.75
2023-04-17T04:58:11.712Z,16.62
2023-04-17T05:00:38.089Z,16.33
2023-04-17T05:03:04.765Z,16.37
2023-04-17T05:05:31.417Z,16.47
2023-04-17T05:07:57.917Z,16.77
2023-04-17T05:10:24.255Z,16.36
2023-04-17T05:12:50.751Z,16.64
2023-04-17T05:15:17.294Z,16.84
2023-04-17T05:17:44.780Z,16.76
2023-04-17T05:20:12.316Z,16.20
2023-04-17T05:22:38.803Z,16.43
2023-04-17T05:25:05.181Z,16.63
2023-04-17T05:27:31.543Z,16.98
2023-04-17T05:29:57.826Z,16.81
2023-04-17T05:32:24.289Z,16.85
2023-04-17T05:34:50.648Z,16.28
2023-04-17T05:37:17.125Z,16.59
2023-04-17T05:39:43.431Z,17.06
2023-04-17T05:42:09.726Z,16.97
2023-04-17T05:44:36.037Z,17.05
2023-04-17T05:47:03.220Z,17.12
2023-04-17T05:49:30.442Z,16.50
2023-04-17T05:51:56.816Z,16.24
2023-04-17T05:54:23.198Z,16.19
2023-04-17T05:56:49.970Z,16.90
2023-04-17T05:59:16.392Z,17.13
2023-04-17T06:01:43.596Z,17.00
2023-04-17T06:04:10.285Z,16.79
2023-04-17T06:06:36.828Z,17.08
2023-04-17T06:09:04.446Z,16.18
2023-04-17T06:11:30.923Z,16.17
2023-04-17T06:13:57.510Z,17.06
2023-04-17T06:16:24.036Z,16.77
2023-04-17T06:18:50.639Z,16.65
2023-04-17T06:21:17.180Z,17.44
2023-04-17T06:23:43.489Z,17.06
2023-04-17T06:26:11.178Z,17.04
2023-04-17T06:28:37.582Z,16.54
2023-04-17T06:31:03.936Z,17.27
2023-04-17T06:33:30.379Z,17.42
2023-04-17T06:35:56.897Z,16.87
2023-04-17T06:38:23.311Z,16.62
2023-04-17T06:40:51.392Z,16.73
2023-04-17T06:43:18.853Z,17.58
2023-04-17T06:45:45.182Z,17.54
2023-04-17T06:48:11.559Z,17.88
2023-04-17T06:50:37.885Z,17.51
2023-04-17T06:53:04.237Z,17.47
2023-04-17T06:55:30.698Z,18.05
2023-04-17T06:57:57.057Z,18.31
2023-04-17T07:00:23.356Z,18.18
2023-04-17T07:02:49.738Z,18.59
2023-04-17T07:05:16.727Z,17.90
2023-04-17T07:07:43.118Z,17.72
2023-04-17T07:10:09.517Z,17.69
2023-04-17T07:12:35.885Z,18.01
2023-04-17T07:15:02.230Z,18.31
2023-04-17T07:17:28.599Z,18.07
2023-04-17T07:19:55.123Z,19.00
2023-04-17T07:22:21.604Z,19.15
2023-04-17T07:24:47.941Z,18.74
2023-04-17T07:27:14.235Z,18.52
2023-04-17T07:29:40.694Z,18.43
2023-04-17T07:32:07.716Z,17.50
2023-04-17T07:34:34.367Z,18.11
2023-04-17T07:37:01.230Z,19.06
2023-04-17T07:39:30.566Z,18.57
2023-04-17T07:41:57.035Z,19.61
2023-04-17T07:44:23.424Z,18.49
2023-04-17T07:46:49.767Z,18.15
2023-04-17T07:49:16.538Z,18.97
2023-04-17T07:51:43.084Z,18.63
2023-04-17T07:54:09.560Z,18.47
2023-04-17T07:56:36.604Z,18.63
2023-04-17T07:59:03.540Z,19.32
2023-04-17T08:01:29.888Z,19.29
2023-04-17T08:03:56.620Z,18.90
2023-04-17T08:06:23.318Z,19.00
2023-04-17T08:08:49.650Z,17.87
2023-04-17T08:11:16.217Z,19.63
2023-04-17T08:13:42.642Z,19.51
2023-04-17T08:16:09.121Z,20.33
2023-04-17T08:18:37.465Z,20.11
2023-04-17T08:21:04.242Z,18.97
2023-04-17T08:23:30.753Z,20.31
2023-04-17T08:25:57.181Z,19.86
2023-04-17T08:28:23.616Z,19.99
2023-04-17T08:30:49.952Z,20.85
2023-04-17T08:33:18.137Z,20.16
2023-04-17T08:35:44.688Z,21.64
2023-04-17T08:38:14.075Z,22.28
2023-04-17T08:40:42.748Z,21.92
2023-04-17T08:43:19.987Z,21.21
2023-04-17T08:45:53.656Z,19.88
2023-04-17T08:48:21.240Z,19.87
2023-04-17T08:50:48.960Z,20.14
2023-04-17T08:53:16.789Z,21.19
2023-04-17T08:55:43.810Z,22.06
2023-04-17T08:58:10.707Z,21.39
2023-04-17T09:00:37.740Z,21.13
2023-04-17T09:03:04.909Z,21.72
2023-04-17T09:05:35.151Z,20.76
2023-04-17T09:08:15.795Z,21.65
2023-04-17T09:10:43.704Z,21.34
2023-04-17T09:13:10.584Z,21.78
2023-04-17T09:15:37.225Z,21.81
2023-04-17T09:18:03.717Z,22.65
2023-04-17T09:20:30.237Z,22.11
2023-04-17T09:23:00.815Z,22.62
2023-04-17T09:25:28.190Z,21.66
2023-04-17T09:27:55.572Z,22.06
2023-04-17T09:30:23.113Z,22.05
2023-04-17T09:32:49.470Z,21.85
2023-04-17T09:35:28.173Z,22.05
2023-04-17T09:37:55.143Z,21.85
2023-04-17T09:40:22.378Z,22.38
2023-04-17T09:42:54.894Z,22.33
2023-04-17T09:45:22.293Z,22.26
2023-04-17T09:48:00.217Z,23.12
2023-04-17T09:50:27.171Z,21.87
2023-04-17T09:52:56.920Z,21.16
2023-04-17T09:55:23.869Z,21.90
2023-04-17T09:57:51.437Z,20.87
2023-04-17T10:00:18.711Z,21.57
2023-04-17T10:02:45.447Z,21.22
2023-04-17T10:05:11.879Z,20.66
2023-04-17T10:07:38.988Z,21.06
2023-04-17T10:10:09.460Z,21.60
2023-04-17T10:12:38.739Z,20.73
2023-04-17T10:15:07.212Z,21.51
2023-04-17T10:17:34.610Z,22.14
2023-04-17T10:20:23.039Z,21.19
2023-04-17T10:22:54.407Z,21.83
2023-04-17T10:25:23.844Z,22.56
2023-04-17T10:27:50.594Z,21.56
2023-04-17T10:30:17.905Z,20.88
2023-04-17T10:32:49.617Z,20.03
2023-04-17T10:35:16.027Z,21.31
2023-04-17T10:38:01.577Z,21.40
2023-04-17T10:40:31.841Z,21.39
2023-04-17T10:43:01.349Z,21.38
2023-04-17T10:45:32.548Z,22.56
2023-04-17T10:47:59.201Z,20.96
2023-04-17T10:50:28.787Z,22.84
2023-04-17T10:52:55.116Z,23.77
2023-04-17T10:55:22.309Z,23.93
2023-04-17T10:57:51.986Z,22.94
2023-04-17T11:00:18.692Z,22.97
2023-04-17T11:02:50.345Z,22.26
2023-04-17T11:05:17.273Z,23.38
2023-04-17T11:07:44.349Z,22.58
2023-04-17T11:10:11.265Z,22.76
2023-04-17T11:12:39.293Z,22.44
2023-04-17T11:15:09.002Z,21.29
2023-04-17T11:17:35.431Z,21.40
2023-04-17T11:20:01.971Z,22.08
2023-04-17T11:22:33.803Z,21.65
2023-04-17T11:25:00.225Z,21.58
2023-04-17T11:27:27.460Z,22.58
2023-04-17T11:29:54.957Z,21.72
2023-04-17T11:32:21.427Z,22.99
2023-04-17T11:34:48.226Z,23.08
2023-04-17T11:37:15.022Z,22.82
2023-04-17T11:39:42.725Z,22.98
2023-04-17T11:42:09.145Z,23.25
2023-04-17T11:44:35.582Z,22.77
2023-04-17T11:47:01.953Z,21.92
2023-04-17T11:49:28.703Z,21.86
2023-04-17T11:51:56.795Z,23.02
2023-04-17T11:54:29.852Z,23.63
2023-04-17T11:57:01.333Z,23.06
2023-04-17T11:59:31.670Z,22.80
2023-04-17T12:02:00.814Z,23.34
2023-04-17T12:04:29.224Z,22.73
2023-04-17T12:06:56.957Z,22.45
2023-04-17T12:09:27.953Z,22.76
2023-04-17T12:11:54.228Z,22.21
2023-04-17T12:14:20.540Z,21.81
2023-04-17T12:16:50.074Z,21.73
2023-04-17T12:19:22.623Z,22.72
2023-04-17T12:21:54.903Z,23.02
2023-04-17T12:24:24.334Z,22.68
2023-04-17T12:26:51.779Z,23.47
2023-04-17T12:29:22.026Z,23.09
2023-04-17T12:31:56.388Z,23.03
2023-04-17T12:34:23.134Z,23.66
2023-04-17T12:36:50.977Z,22.89
2023-04-17T12:39:17.305Z,22.10
2023-04-17T12:41:43.595Z,22.42
2023-04-17T12:44:10.226Z,23.25
2023-04-17T12:46:36.769Z,23.28
2023-04-17T12:49:03.282Z,23.10
2023-04-17T12:51:29.619Z,23.35
2023-04-17T12:53:56.218Z,22.92
2023-04-17T12:56:22.726Z,22.65
2023-04-17T12:58:49.287Z,22.99
2023-04-17T13:01:16.037Z,22.76
2023-04-17T13:03:42.617Z,23.05
2023-04-17T13:06:09.050Z,22.64
2023-04-17T13:08:35.372Z,23.62
2023-04-17T13:11:03.950Z,23.06
2023-04-17T13:13:30.510Z,22.18
2023-04-17T13:15:56.871Z,22.18
2023-04-17T13:18:23.170Z,22.23
2023-04-17T13:20:49.600Z,23.48
2023-04-17T13:23:16.184Z,22.57
2023-04-17T13:25:42.613Z,23.91
2023-04-17T13:28:09.043Z,23.43
2023-04-17T13:30:37.267Z,22.25
2023-04-17T13:33:03.967Z,22.85
2023-04-17T13:35:30.378Z,22.80
2023-04-17T13:38:01.087Z,22.75
2023-04-17T13:40:30.525Z,22.47
2023-04-17T13:42:56.945Z,23.49
2023-04-17T13:45:23.263Z,24.31
2023-04-17T13:47:49.597Z,23.92
2023-04-17T13:50:15.946Z,24.10
2023-04-17T13:52:42.242Z,23.44
2023-04-17T13:55:11.881Z,22.55
2023-04-17T13:57:38.444Z,23.14
2023-04-17T14:00:05.176Z,23.22
2023-04-17T14:02:31.760Z,24.69
2023-04-17T14:04:58.458Z,23.52
2023-04-17T14:07:25.177Z,23.48
2023-04-17T14:09:51.531Z,23.96
2023-04-17T14:12:20.779Z,24.16
2023-04-17T14:14:47.113Z,23.39
2023-04-17T14:17:13.392Z,24.86
2023-04-17T14:19:39.770Z,24.67
2023-04-17T14:22:06.214Z,23.62
2023-04-17T14:24:32.751Z,24.27
2023-04-17T14:26:59.068Z,23.09
2023-04-17T14:29:25.454Z,24.01
2023-04-17T14:31:52.181Z,24.17
2023-04-17T14:34:18.564Z,23.69
2023-04-17T14:36:44.899Z,23.32
2023-04-17T14:39:11.642Z,23.27
2023-04-17T14:41:38.282Z,22.86
2023-04-17T14:44:04.836Z,23.79
2023-04-17T14:46:31.476Z,23.87
2023-04-17T14:48:57.989Z,25.29
2023-04-17T14:51:24.329Z,23.34
2023-04-17T14:53:51.200Z,24.94
2023-04-17T14:56:17.524Z,24.88
2023-04-17T14:58:43.906Z,24.20
2023-04-17T15:01:10.517Z,23.57
2023-04-17T15:03:37.269Z,23.15
2023-04-17T15:06:03.972Z,22.42
2023-04-17T15:08:33.361Z,21.92
2023-04-17T15:10:59.750Z,22.09
2023-04-17T15:13:26.268Z,23.04
2023-04-17T15:15:52.690Z,23.75
2023-04-17T15:18:19.090Z,22.35
2023-04-17T15:20:46.363Z,23.91
2023-04-17T15:23:12.821Z,22.41
2023-04-17T15:25:39.295Z,21.53
2023-04-17T15:28:05.764Z,22.54
2023-04-17T15:30:32.148Z,21.83
2023-04-17T15:32:58.588Z,21.88
2023-04-17T15:35:24.925Z,22.05
2023-04-17T15:37:51.212Z,21.97
2023-04-17T15:40:17.540Z,21.86
2023-04-17T15:42:51.157Z,21.85
2023-04-17T15:45:17.554Z,21.23
2023-04-17T15:47:44.027Z,22.68
2023-04-17T15:50:11.194Z,22.48
2023-04-17T15:52:37.628Z,21.89
2023-04-17T15:55:04.291Z,22.31
2023-04-17T15:57:30.638Z,23.14
2023-04-17T15:59:57.014Z,22.02
2023-04-17T16:02:23.631Z,21.93
2023-04-17T16:04:51.136Z,21.20
2023-04-17T16:07:17.739Z,21.78
2023-04-17T16:09:48.267Z,23.19
2023-04-17T16:12:14.614Z,22.79
2023-04-17T16:14:43.924Z,21.74
2023-04-17T16:17:11.033Z,20.70
2023-04-17T16:19:37.730Z,22.25
2023-04-17T16:22:04.188Z,22.55
2023-04-17T16:24:30.673Z,21.64
2023-04-17T16:26:58.718Z,22.11
2023-04-17T16:29:25.377Z,22.73
2023-04-17T16:31:52.245Z,22.70
2023-04-17T16:34:19.718Z,22.16
2023-04-17T16:36:46.556Z,21.78
2023-04-17T16:39:13.491Z,20.99
2023-04-17T16:41:40.284Z,20.50
2023-04-17T16:44:06.725Z,20.73
2023-04-17T16:46:45.655Z,20.63
2023-04-17T16:49:19.677Z,20.37
2023-04-17T16:51:46.075Z,21.21
2023-04-17T16:54:12.790Z,20.91
2023-04-17T16:56:39.340Z,21.11
2023-04-17T16:59:06.089Z,21.60
2023-04-17T17:01:32.575Z,21.52
2023-04-17T17:03:59.099Z,21.54
2023-04-17T17:06:25.596Z,21.22
2023-04-17T17:11:18.820Z,21.85
2023-04-17T17:13:48.498Z,20.56
2023-04-17T17:16:15.677Z,21.00
2023-04-17T17:18:42.042Z,20.92
2023-04-17T17:21:08.346Z,19.35
2023-04-17T17:23:34.993Z,20.06
2023-04-17T17:26:01.396Z,19.68
2023-04-17T17:28:27.769Z,19.96
2023-04-17T17:31:03.557Z,19.48
2023-04-17T17:33:30.042Z,19.85
2023-04-17T17:35:56.798Z,19.80
2023-04-17T17:38:23.486Z,19.60
2023-04-17T17:40:52.944Z,19.29
2023-04-17T17:43:19.270Z,18.83
2023-04-17T17:45:45.887Z,18.91
2023-04-17T17:48:15.364Z,19.29
2023-04-17T17:50:42.723Z,18.62
2023-04-17T17:53:09.529Z,19.06
2023-04-17T17:55:37.971Z,19.58
2023-04-17T17:58:05.415Z,19.53
2023-04-17T18:00:31.989Z,19.09
2023-04-17T18:02:58.477Z,19.17
2023-04-17T18:05:25.137Z,18.71
2023-04-17T18:07:51.499Z,18.48
2023-04-17T18:10:18.018Z,18.51
2023-04-17T18:12:44.361Z,18.64
2023-04-17T18:15:10.793Z,18.44
2023-04-17T18:17:37.623Z,17.84
2023-04-17T18:20:04.105Z,18.43
2023-04-17T18:22:30.629Z,18.42
2023-04-17T18:24:57.059Z,18.46
2023-04-17T18:27:23.365Z,18.36
2023-04-17T18:29:49.714Z,18.21
2023-04-17T18:32:16.108Z,17.99
2023-04-17T18:34:42.811Z,18.25
2023-04-17T18:37:09.222Z,18.22
2023-04-17T18:39:35.747Z,17.90
2023-04-17T18:42:02.173Z,17.84
2023-04-17T18:44:28.475Z,18.18
2023-04-17T18:46:54.927Z,17.83
2023-04-17T18:49:21.305Z,16.77
2023-04-17T18:51:47.989Z,18.00
2023-04-17T18:54:15.725Z,17.80
2023-04-17T18:56:42.310Z,17.34
2023-04-17T18:59:08.624Z,17.18
2023-04-17T19:01:34.929Z,17.49
2023-04-17T19:04:01.238Z,17.36
2023-04-17T19:06:27.611Z,17.57
2023-04-17T19:08:54.581Z,17.54
2023-04-17T19:11:20.963Z,17.25
2023-04-17T19:13:47.392Z,17.48
2023-04-17T19:16:13.858Z,17.53
2023-04-17T19:18:40.276Z,17.37
2023-04-17T19:21:06.787Z,17.92
2023-04-17T19:23:33.350Z,16.89
2023-04-17T19:25:59.680Z,16.54
2023-04-17T19:28:27.441Z,16.80
2023-04-17T19:30:54.044Z,17.21
2023-04-17T19:33:20.607Z,17.61
2023-04-17T19:35:46.909Z,17.42
2023-04-17T19:38:15.447Z,17.38
2023-04-17T19:40:43.500Z,16.97
2023-04-17T19:43:10.021Z,17.46
2023-04-17T19:45:36.487Z,16.37
2023-04-17T19:48:03.061Z,16.72
2023-04-17T19:50:30.086Z,16.87
2023-04-17T19:52:57.619Z,16.35
2023-04-17T19:55:24.244Z,16.54
2023-04-17T19:57:52.143Z,16.58
2023-04-17T20:00:18.664Z,17.10
2023-04-17T20:02:45.479Z,17.12
2023-04-17T20:05:11.995Z,16.49
2023-04-17T20:07:38.394Z,16.67
2023-04-17T20:10:05.248Z,16.63
2023-04-17T20:12:31.693Z,16.71
2023-04-17T20:14:59.136Z,17.20
2023-04-17T20:17:25.610Z,16.50
2023-04-17T20:19:52.180Z,16.59
2023-04-17T20:22:18.546Z,16.67
2023-04-17T20:24:44.967Z,16.43
2023-04-17T20:27:11.442Z,16.39
2023-04-17T20:29:38.093Z,17.13
2023-04-17T20:32:04.521Z,16.58
2023-04-17T20:34:35.135Z,16.33
2023-04-17T20:37:02.059Z,16.13
2023-04-17T20:39:28.957Z,16.44
2023-04-17T20:41:55.448Z,16.23
2023-04-17T20:44:22.150Z,16.93
2023-04-17T20:46:48.566Z,16.47
2023-04-17T20:49:15.178Z,16.49
2023-04-17T20:51:41.628Z,16.74
2023-04-17T20:54:08.284Z,15.73
2023-04-17T20:56:34.923Z,16.49
2023-04-17T20:59:01.397Z,15.59
2023-04-17T21:01:27.869Z,16.20
2023-04-17T21:03:54.540Z,15.74
2023-04-17T21:06:22.760Z,15.13
2023-04-17T21:08:49.409Z,15.85
2023-04-17T21:11:15.921Z,15.99
2023-04-17T21:13:42.390Z,15.23
2023-04-17T21:16:12.115Z,14.92
2023-04-17T21:18:38.729Z,14.88
2023-04-17T21:21:05.500Z,15.47
2023-04-17T21:23:31.956Z,15.46
2023-04-17T21:25:58.560Z,15.65
2023-04-17T21:28:25.022Z,15.41
2023-04-17T21:30:51.480Z,15.26
2023-04-17T21:33:18.172Z,15.35
2023-04-17T21:35:44.712Z,15.83
2023-04-17T21:38:12.533Z,15.74
2023-04-17T21:40:50.633Z,15.18
2023-04-17T21:43:18.329Z,15.35
2023-04-17T21:45:45.009Z,15.69
2023-04-17T21:48:11.449Z,15.53
2023-04-17T21:50:37.888Z,15.85
2023-04-17T21:53:04.270Z,16.06
2023-04-17T21:55:30.732Z,16.24
2023-04-17T21:57:57.116Z,15.84
2023-04-17T22:00:23.682Z,15.59
2023-04-17T22:02:50.123Z,16.49
2023-04-17T22:05:16.736Z,15.78
2023-04-17T22:07:51.784Z,15.17
2023-04-17T22:10:20.581Z,15.54
2023-04-17T22:12:46.966Z,16.07
2023-04-17T22:15:13.374Z,15.92
2023-04-17T22:17:39.822Z,15.62
2023-04-17T22:20:07.107Z,15.44
2023-04-17T22:22:33.490Z,15.01
2023-04-17T22:24:59.877Z,15.52
2023-04-17T22:27:26.269Z,15.09
2023-04-17T22:29:52.644Z,15.21
2023-04-17T22:32:19.054Z,15.27
2023-04-17T22:34:49.149Z,15.38
2023-04-17T22:37:15.615Z,16.34
2023-04-17T22:39:42.175Z,15.34
2023-04-17T22:42:08.691Z,15.88
2023-04-17T22:44:35.597Z,16.44
2023-04-17T22:47:01.978Z,15.07
2023-04-17T22:49:28.400Z,15.31
2023-04-17T22:51:54.895Z,15.21
2023-04-17T22:54:23.127Z,15.83
2023-04-17T22:56:49.880Z,15.78
2023-04-17T22:59:16.314Z,16.37
2023-04-17T23:01:42.810Z,15.99
2023-04-17T23:04:10.584Z,15.93
2023-04-17T23:06:37.065Z,15.72
2023-04-17T23:09:04.743Z,15.72
2023-04-17T23:11:31.864Z,16.12
2023-04-17T23:13:58.379Z,16.27
2023-04-17T23:16:25.091Z,15.66
2023-04-17T23:18:51.715Z,15.35
2023-04-17T23:21:18.108Z,15.15
2023-04-17T23:23:45.238Z,16.14
2023-04-17T23:26:15.020Z,16.90
2023-04-17T23:28:41.649Z,16.32
2023-04-17T23:31:08.180Z,15.44
2023-04-17T23:33:34.653Z,15.35
2023-04-17T23:36:01.128Z,15.63
2023-04-17T23:38:27.570Z,15.84
2023-04-17T23:40:54.089Z,16.65
2023-04-17T23:43:20.599Z,16.48
2023-04-17T23:45:47.035Z,15.80
2023-04-17T23:48:13.459Z,16.27
2023-04-17T23:50:40.818Z,15.74
2023-04-17T23:53:07.544Z,15.68
2023-04-17T23:55:34.272Z,15.83
2023-04-17T23:58:00.676Z,15.21
